Time;durP1;ratioP1;P1;durP2;ratioP2;P2;SDS_P1;SDS_P2;PMS_P1;PMS_P2;Temp;Humidity;BMP_temperature;BMP_pressure;BME280_temperature;BME280_humidity;BME280_pressure;Samples;Min_cycle;Max_cycle;Signal;HPM_P1;HPM_P2
2022/09/19 00:02:34;;;;;;;6.97;0.80;;;8.90;1.00;;;;;;5043927;28;20402;-78
2022/09/19 00:05:06;;;;;;;2.30;0.80;;;9.00;1.00;;;;;;5047754;28;20434;-77
2022/09/19 00:07:34;;;;;;;1.93;0.80;;;9.10;1.00;;;;;;5036664;28;20419;-78
2022/09/19 00:10:06;;;;;;;1.23;0.70;;;9.20;1.00;;;;;;5052786;28;20427;-78
2022/09/19 00:12:58;;;;;;;0.73;0.70;;;9.30;1.00;;;;;;5053382;28;20440;-78
2022/09/19 00:15:58;;;;;;;1.87;0.73;;;9.30;1.00;;;;;;5043768;28;20459;-83
2022/09/19 00:19:16;;;;;;;0.60;0.60;;;9.40;1.00;;;;;;5051515;28;20927;-83
2022/09/19 00:22:34;;;;;;;1.57;0.70;;;9.50;1.00;;;;;;5038615;28;20527;-83
2022/09/19 00:28:25;;;;;;;4.20;0.80;;;9.50;1.00;;;;;;5053641;28;20508;-82
2022/09/19 00:30:51;;;;;;;3.90;0.93;;;9.60;1.00;;;;;;5054288;28;20476;-78
2022/09/19 00:33:27;;;;;;;1.80;0.60;;;9.70;1.00;;;;;;5041829;28;20435;-77
2022/09/19 00:36:41;;;;;;;1.93;0.90;;;9.80;1.00;;;;;;5052875;28;20243;-78
2022/09/19 00:39:28;;;;;;;1.87;0.67;;;9.80;1.00;;;;;;5034154;28;20800;-77
2022/09/19 00:42:31;;;;;;;2.23;0.70;;;9.80;1.00;;;;;;5047615;28;20457;-77
2022/09/19 00:45:03;;;;;;;2.83;0.77;;;9.90;1.00;;;;;;4987953;28;20443;-77
2022/09/19 00:47:35;;;;;;;1.30;0.87;;;9.90;1.00;;;;;;4992147;28;20510;-83
2022/09/19 00:50:19;;;;;;;4.97;1.07;;;10.00;1.00;;;;;;4992402;28;20397;-83
2022/09/19 00:53:40;;;;;;;0.70;0.70;;;10.00;1.00;;;;;;4992283;28;20470;-82
2022/09/19 00:59:31;;;;;;;8.53;1.00;;;10.00;1.00;;;;;;4984984;28;20467;-82
2022/09/19 01:02:34;;;;;;;1.53;0.80;;;10.00;1.00;;;;;;4992690;28;20515;-82
2022/09/19 01:05:19;;;;;;;3.53;1.00;;;10.00;1.00;;;;;;4992246;28;20979;-83
2022/09/19 01:11:29;;;;;;;2.70;1.07;;;10.10;1.00;;;;;;4983286;28;20408;-82
2022/09/19 01:14:16;;;;;;;4.77;0.93;;;10.10;1.00;;;;;;4991799;28;20910;-82
2022/09/19 01:16:50;;;;;;;4.67;1.00;;;10.10;1.00;;;;;;4979513;28;20446;-82
2022/09/19 01:19:53;;;;;;;5.37;0.90;;;10.00;1.00;;;;;;5019299;28;20423;-82
2022/09/19 01:23:06;;;;;;;5.90;1.20;;;10.10;1.00;;;;;;5061374;28;20780;-82
2022/09/19 01:25:52;;;;;;;2.43;1.10;;;10.10;1.00;;;;;;5005969;28;20420;-82
2022/09/19 01:28:44;;;;;;;5.10;1.23;;;10.10;1.00;;;;;;4997337;28;20417;-83
2022/09/19 01:31:22;;;;;;;5.83;1.43;;;10.10;1.00;;;;;;4996049;28;20428;-78
2022/09/19 01:34:13;;;;;;;1.00;0.87;;;10.20;1.00;;;;;;4996104;28;20456;-77
2022/09/19 01:36:46;;;;;;;5.27;0.90;;;10.20;1.00;;;;;;4991981;28;20927;-77
2022/09/19 01:39:17;;;;;;;1.57;0.87;;;10.20;1.00;;;;;;5000770;28;20409;-77
2022/09/19 01:42:14;;;;;;;3.13;1.00;;;10.20;1.00;;;;;;4995765;28;20416;-77
2022/09/19 01:44:39;;;;;;;6.20;1.00;;;10.20;1.00;;;;;;4982777;28;20588;-77
2022/09/19 01:47:36;;;;;;;3.73;0.90;;;10.20;1.00;;;;;;4995864;28;20412;-78
2022/09/19 01:50:39;;;;;;;8.20;2.10;;;10.30;1.00;;;;;;5004927;28;20608;-77
2022/09/19 01:53:26;;;;;;;3.83;1.20;;;10.30;1.00;;;;;;4983643;28;20498;-78
2022/09/19 01:56:11;;;;;;;2.97;1.10;;;10.30;1.00;;;;;;4995157;28;21014;-77
2022/09/19 01:59:09;;;;;;;3.13;1.20;;;10.40;1.00;;;;;;4983264;28;20440;-77
2022/09/19 02:02:10;;;;;;;5.93;1.73;;;10.40;1.00;;;;;;4987248;28;20913;-82
2022/09/19 02:05:28;;;;;;;4.97;0.97;;;10.40;1.00;;;;;;5037792;28;20411;-82
2022/09/19 02:11:19;;;;;;;4.57;1.47;;;10.40;1.00;;;;;;5045643;28;20916;-82
2022/09/19 02:13:54;;;;;;;6.60;1.30;;;10.40;1.00;;;;;;5056430;28;20636;-82
2022/09/19 02:16:36;;;;;;;2.80;1.17;;;10.50;1.00;;;;;;5056786;28;20494;-81
2022/09/19 02:19:32;;;;;;;4.23;1.30;;;10.60;1.00;;;;;;5036350;28;20517;-82
2022/09/19 02:22:32;;;;;;;8.17;1.30;;;10.60;1.00;;;;;;5050648;28;20423;-82
2022/09/19 02:25:05;;;;;;;4.80;1.63;;;10.60;1.00;;;;;;5036386;28;20482;-82
2022/09/19 02:27:49;;;;;;;6.20;1.20;;;10.60;1.00;;;;;;5036394;28;20419;-82
2022/09/19 02:30:46;;;;;;;15.50;3.87;;;10.70;1.00;;;;;;5051506;28;20423;-82
2022/09/19 02:33:12;;;;;;;2.70;1.13;;;10.70;1.00;;;;;;5049607;28;20427;-77
2022/09/19 02:36:15;;;;;;;3.30;1.23;;;10.80;1.00;;;;;;5041360;28;20540;-78
2022/09/19 02:39:02;;;;;;;25.07;2.30;;;10.80;1.00;;;;;;5035776;28;20233;-77
2022/09/19 02:41:39;;;;;;;9.10;1.33;;;10.90;1.00;;;;;;5035822;28;20402;-77
2022/09/19 02:44:31;;;;;;;1.23;0.97;;;10.80;1.00;;;;;;5049057;28;20832;-77
2022/09/19 02:47:06;;;;;;;8.23;1.17;;;10.80;1.00;;;;;;5044949;28;20441;-82
2022/09/19 02:49:39;;;;;;;5.27;1.80;;;10.80;1.00;;;;;;5054771;28;20762;-82
2022/09/19 02:52:15;;;;;;;4.00;1.10;;;10.90;1.00;;;;;;5053696;28;20410;-82
2022/09/19 02:58:06;;;;;;;5.47;1.97;;;10.90;1.00;;;;;;5054619;28;20407;-82
2022/09/19 03:00:38;;;;;;;2.67;1.40;;;10.90;1.00;;;;;;5055414;28;20484;-82
2022/09/19 03:06:13;;;;;;;4.40;1.60;;;11.00;1.00;;;;;;5054387;28;20426;-77
2022/09/19 03:08:39;;;;;;;4.70;1.80;;;11.00;1.00;;;;;;5055540;28;20483;-77
2022/09/19 03:11:14;;;;;;;6.43;2.70;;;11.00;1.00;;;;;;5055641;28;20414;-77
2022/09/19 03:13:47;;;;;;;2.30;1.40;;;11.10;1.00;;;;;;5041809;28;20406;-77
2022/09/19 03:16:34;;;;;;;6.10;1.93;;;11.10;1.00;;;;;;5052847;28;20436;-77
2022/09/19 03:19:11;;;;;;;4.40;1.30;;;11.00;1.00;;;;;;5055204;28;20414;-82
2022/09/19 03:21:53;;;;;;;5.23;1.30;;;11.10;1.00;;;;;;5042642;28;20407;-82
2022/09/19 03:24:35;;;;;;;6.30;2.17;;;11.10;1.00;;;;;;5043065;28;20433;-82
2022/09/19 03:30:24;;;;;;;16.00;1.60;;;11.10;1.00;;;;;;5052685;28;20405;-82
2022/09/19 03:32:53;;;;;;;11.60;1.80;;;11.00;1.00;;;;;;5054327;28;20453;-82
2022/09/19 03:36:02;;;;;;;3.60;1.47;;;11.10;1.00;;;;;;5051231;28;20515;-82
2022/09/19 03:38:30;;;;;;;10.70;2.20;;;11.20;1.00;;;;;;5041187;28;20925;-82
2022/09/19 03:40:56;;;;;;;6.07;1.90;;;11.20;1.00;;;;;;5053581;28;20406;-82
2022/09/19 03:43:29;;;;;;;8.80;2.60;;;11.20;1.00;;;;;;5037102;28;20458;-82
2022/09/19 03:46:11;;;;;;;3.10;2.10;;;11.20;1.00;;;;;;5036206;28;20207;-82
2022/09/19 03:48:44;;;;;;;7.27;2.13;;;11.20;1.00;;;;;;5053179;28;20437;-82
2022/09/19 03:51:17;;;;;;;11.03;1.90;;;11.20;1.00;;;;;;5051705;28;20417;-82
2022/09/19 03:54:10;;;;;;;3.53;1.53;;;11.20;1.00;;;;;;5054437;28;22329;-82
2022/09/19 03:56:58;;;;;;;4.33;1.80;;;11.20;1.00;;;;;;5054762;28;20408;-82
2022/09/19 03:59:46;;;;;;;3.87;1.70;;;11.20;1.00;;;;;;5035192;28;20438;-82
2022/09/19 04:02:15;;;;;;;2.60;1.60;;;11.20;1.00;;;;;;5035246;28;20799;-78
2022/09/19 04:05:04;;;;;;;7.10;2.00;;;11.10;1.00;;;;;;5046490;28;20415;-77
2022/09/19 04:07:30;;;;;;;5.87;1.70;;;11.10;1.00;;;;;;5048139;28;20408;-77
2022/09/19 04:09:59;;;;;;;7.77;1.80;;;11.20;1.00;;;;;;5045095;28;20927;-77
2022/09/19 04:12:34;;;;;;;6.03;1.83;;;11.10;1.00;;;;;;5052064;28;20508;-77
2022/09/19 04:15:28;;;;;;;6.43;1.90;;;11.20;1.00;;;;;;5053974;28;20503;-77
2022/09/19 04:17:54;;;;;;;9.00;2.17;;;11.20;1.00;;;;;;5053044;28;20432;-77
2022/09/19 04:20:23;;;;;;;6.90;1.97;;;11.20;1.00;;;;;;5040316;28;20472;-77
2022/09/19 04:22:49;;;;;;;5.83;1.80;;;11.10;1.00;;;;;;5054369;28;20210;-77
2022/09/19 04:25:15;;;;;;;11.53;1.80;;;11.10;1.00;;;;;;5053924;28;20436;-77
2022/09/19 04:27:43;;;;;;;2.77;1.80;;;11.00;1.00;;;;;;5042707;28;20528;-77
2022/09/19 04:30:11;;;;;;;6.63;2.37;;;11.00;1.00;;;;;;5032882;28;20461;-77
2022/09/19 04:32:48;;;;;;;9.97;2.90;;;11.00;1.00;;;;;;5045166;28;20434;-81
2022/09/19 04:35:35;;;;;;;4.13;1.93;;;11.00;1.00;;;;;;5052525;28;20473;-83
2022/09/19 04:38:18;;;;;;;9.20;2.20;;;11.00;1.00;;;;;;5040561;28;20414;-82
2022/09/19 04:44:30;;;;;;;12.00;2.10;;;11.00;1.00;;;;;;5042327;28;20395;-83
2022/09/19 04:47:11;;;;;;;4.50;2.20;;;11.00;1.00;;;;;;5052792;28;20446;-84
2022/09/19 04:50:17;;;;;;;6.53;1.73;;;11.10;1.00;;;;;;5047814;28;20996;-83
2022/09/19 04:52:59;;;;;;;3.17;1.80;;;11.00;1.00;;;;;;5051731;28;20425;-82
2022/09/19 04:55:29;;;;;;;15.30;1.97;;;11.10;1.00;;;;;;5043463;28;20463;-82
2022/09/19 04:58:05;;;;;;;11.73;2.73;;;11.00;1.00;;;;;;5033305;28;20469;-82
2022/09/19 05:00:38;;;;;;;6.70;1.73;;;11.00;1.00;;;;;;5035194;28;20916;-82
2022/09/19 05:03:14;;;;;;;8.53;1.67;;;11.10;1.00;;;;;;5043254;28;20430;-82
2022/09/19 05:05:59;;;;;;;7.27;1.90;;;11.10;1.00;;;;;;5051511;28;20509;-82
2022/09/19 05:08:52;;;;;;;24.33;4.03;;;11.20;1.00;;;;;;5033663;28;20433;-82
2022/09/19 05:11:21;;;;;;;6.93;1.87;;;11.10;1.00;;;;;;5043635;28;20410;-82
2022/09/19 05:14:17;;;;;;;5.80;1.97;;;11.10;1.00;;;;;;5036029;28;20458;-82
2022/09/19 05:16:50;;;;;;;9.03;2.10;;;11.20;1.00;;;;;;5046637;28;20442;-82
2022/09/19 05:19:36;;;;;;;5.90;1.70;;;11.20;1.00;;;;;;5052796;28;20425;-77
2022/09/19 05:22:01;;;;;;;6.10;1.80;;;11.30;1.00;;;;;;5052773;28;20418;-76
2022/09/19 05:24:27;;;;;;;14.33;1.80;;;11.30;1.00;;;;;;5053966;28;20410;-76
2022/09/19 05:26:59;;;;;;;8.50;1.50;;;11.20;1.00;;;;;;5047980;28;20414;-77
2022/09/19 05:29:46;;;;;;;15.60;2.83;;;11.30;1.00;;;;;;5045914;28;20183;-77
2022/09/19 05:32:12;;;;;;;11.40;1.80;;;11.30;1.00;;;;;;5042181;28;20445;-76
2022/09/19 05:35:04;;;;;;;8.07;2.00;;;11.40;1.00;;;;;;5051607;28;20458;-82
2022/09/19 05:37:42;;;;;;;6.03;1.50;;;11.40;1.00;;;;;;5032139;28;20294;-82
2022/09/19 05:40:46;;;;;;;9.47;2.00;;;11.40;1.00;;;;;;5040206;28;20467;-82
2022/09/19 05:43:17;;;;;;;5.57;2.30;;;11.50;1.00;;;;;;5051710;28;20426;-82
2022/09/19 05:45:55;;;;;;;4.80;1.90;;;11.50;1.00;;;;;;5039201;28;20450;-82
2022/09/19 05:49:05;;;;;;;8.73;1.80;;;11.50;1.00;;;;;;5051530;28;20433;-83
2022/09/19 05:51:31;;;;;;;11.87;2.37;;;11.60;1.00;;;;;;5040404;28;20440;-76
2022/09/19 05:53:59;;;;;;;4.83;1.97;;;11.60;1.00;;;;;;5051450;28;20449;-77
2022/09/19 05:56:35;;;;;;;6.90;1.97;;;11.70;1.00;;;;;;5044159;28;20662;-77
2022/09/19 05:59:22;;;;;;;3.57;1.70;;;11.80;1.00;;;;;;5039089;28;20426;-78
2022/09/19 06:02:01;;;;;;;6.30;2.20;;;11.80;1.00;;;;;;5052586;28;20456;-78
2022/09/19 06:04:29;;;;;;;7.20;2.27;;;11.80;1.00;;;;;;5048419;28;20426;-79
2022/09/19 06:06:59;;;;;;;14.83;2.30;;;11.80;1.00;;;;;;5046293;28;20452;-78
2022/09/19 06:09:29;;;;;;;6.57;2.20;;;11.80;1.00;;;;;;5047285;28;20421;-79
2022/09/19 06:12:11;;;;;;;10.33;2.00;;;11.90;1.00;;;;;;5056579;28;20397;-76
2022/09/19 06:14:47;;;;;;;12.20;2.70;;;12.00;1.00;;;;;;5054305;28;20449;-77
2022/09/19 06:17:17;;;;;;;5.57;2.20;;;11.90;1.00;;;;;;5040063;28;20461;-76
2022/09/19 06:20:04;;;;;;;12.50;2.37;;;12.00;1.00;;;;;;5036811;28;20452;-81
2022/09/19 06:23:06;;;;;;;14.27;3.13;;;12.00;1.00;;;;;;5039002;28;20414;-81
2022/09/19 06:25:41;;;;;;;11.73;2.60;;;12.00;1.00;;;;;;5044264;28;20417;-78
2022/09/19 06:28:11;;;;;;;8.43;2.53;;;12.20;1.00;;;;;;5055330;28;20512;-78
2022/09/19 06:30:46;;;;;;;3.37;2.10;;;12.30;1.00;;;;;;5053045;28;20463;-78
2022/09/19 06:33:11;;;;;;;18.87;4.13;;;12.40;1.00;;;;;;5036145;28;20418;-78
2022/09/19 06:35:37;;;;;;;11.93;3.43;;;12.50;1.00;;;;;;5052249;28;20791;-76
2022/09/19 06:38:07;;;;;;;5.53;2.93;;;12.60;1.00;;;;;;5043983;28;20172;-76
2022/09/19 06:40:47;;;;;;;6.60;2.97;;;12.50;1.00;;;;;;5046266;28;20175;-76
2022/09/19 06:43:34;;;;;;;6.60;3.10;;;12.60;1.00;;;;;;5054353;28;20402;-75
2022/09/19 06:46:18;;;;;;;10.33;3.37;;;12.80;1.00;;;;;;5049596;28;20456;-75
2022/09/19 06:48:48;;;;;;;9.47;3.20;;;12.80;1.00;;;;;;5030393;28;20438;-75
2022/09/19 06:51:17;;;;;;;7.40;3.33;;;12.90;1.00;;;;;;5044486;28;20426;-80
2022/09/19 06:53:53;;;;;;;16.73;3.40;;;12.80;1.00;;;;;;5052372;28;20434;-78
2022/09/19 06:56:18;;;;;;;12.53;3.30;;;12.90;1.00;;;;;;5055430;28;20396;-78
2022/09/19 06:59:04;;;;;;;6.47;2.97;;;13.00;1.00;;;;;;5049106;28;20415;-78
2022/09/19 07:01:37;;;;;;;5.70;3.27;;;13.00;1.00;;;;;;5047711;28;20199;-78
2022/09/19 07:04:18;;;;;;;7.67;3.20;;;13.00;1.00;;;;;;5041566;28;20772;-79
2022/09/19 07:06:44;;;;;;;11.47;3.50;;;13.10;1.00;;;;;;5049333;28;20403;-76
2022/09/19 07:09:11;;;;;;;8.73;3.30;;;13.10;1.00;;;;;;5046963;28;20484;-76
2022/09/19 07:11:37;;;;;;;11.50;3.77;;;13.10;1.00;;;;;;5050010;28;20506;-76
2022/09/19 07:14:03;;;;;;;8.30;3.20;;;13.20;1.00;;;;;;5043359;28;20507;-76
2022/09/19 07:16:30;;;;;;;9.63;3.20;;;13.20;1.00;;;;;;5049287;28;20190;-76
2022/09/19 07:19:05;;;;;;;8.97;3.00;;;13.40;1.00;;;;;;5055276;28;20413;-77
2022/09/19 07:21:30;;;;;;;7.47;3.20;;;13.30;1.00;;;;;;5055042;28;20421;-76
2022/09/19 07:23:57;;;;;;;4.10;3.00;;;13.20;1.00;;;;;;5042048;28;20472;-76
2022/09/19 07:26:29;;;;;;;7.80;3.20;;;13.20;1.00;;;;;;5053888;28;20179;-75
2022/09/19 07:28:55;;;;;;;5.70;2.70;;;13.10;1.00;;;;;;5053252;28;20464;-76
2022/09/19 07:31:23;;;;;;;16.97;2.90;;;13.20;1.00;;;;;;5051129;28;20470;-76
2022/09/19 07:34:10;;;;;;;5.23;3.10;;;13.20;1.00;;;;;;5050178;28;20174;-76
2022/09/19 07:36:41;;;;;;;7.07;3.03;;;13.30;1.00;;;;;;5049132;28;20421;-80
2022/09/19 07:39:34;;;;;;;8.33;3.00;;;13.40;1.00;;;;;;5054519;28;20768;-80
2022/09/19 07:42:11;;;;;;;7.53;2.90;;;13.80;1.00;;;;;;5054748;28;20406;-80
2022/09/19 07:44:47;;;;;;;10.00;2.93;;;13.80;1.00;;;;;;5054314;28;20986;-80
2022/09/19 07:47:47;;;;;;;10.20;2.70;;;13.80;1.00;;;;;;5037031;28;20449;-81
2022/09/19 07:50:35;;;;;;;6.57;2.20;;;13.80;1.00;;;;;;5039730;28;20409;-79
2022/09/19 07:53:08;;;;;;;8.43;2.70;;;14.10;1.00;;;;;;5034600;28;20415;-80
2022/09/19 07:55:37;;;;;;;4.13;2.10;;;14.50;1.00;;;;;;5034157;28;20454;-80
2022/09/19 07:58:17;;;;;;;8.90;2.50;;;14.40;1.00;;;;;;5047840;28;21083;-80
2022/09/19 08:00:48;;;;;;;8.00;2.80;;;14.80;1.00;;;;;;5053747;28;20458;-80
2022/09/19 08:03:23;;;;;;;10.47;3.40;;;14.80;1.00;;;;;;5054179;28;20384;-80
2022/09/19 08:05:50;;;;;;;9.73;3.73;;;14.70;1.00;;;;;;5035224;28;20902;-80
2022/09/19 08:08:29;;;;;;;10.67;3.53;;;14.90;1.00;;;;;;5046443;28;20409;-80
2022/09/19 08:11:05;;;;;;;8.77;3.50;;;14.90;1.00;;;;;;5046480;28;20425;-80
2022/09/19 08:13:35;;;;;;;4.77;3.30;;;14.90;1.00;;;;;;5049218;28;20761;-80
2022/09/19 08:16:17;;;;;;;11.30;3.93;;;14.90;1.00;;;;;;5043911;28;20414;-80
2022/09/19 08:18:47;;;;;;;10.90;3.83;;;14.70;1.00;;;;;;5053635;28;20907;-80
2022/09/19 08:21:18;;;;;;;11.97;4.10;;;14.70;1.00;;;;;;5046595;28;20398;-75
2022/09/19 08:23:44;;;;;;;13.73;4.60;;;14.80;1.00;;;;;;5041040;28;20406;-75
2022/09/19 08:26:17;;;;;;;10.60;4.50;;;14.60;1.00;;;;;;5054228;28;20463;-75
2022/09/19 08:28:50;;;;;;;7.13;3.70;;;14.60;1.00;;;;;;5048756;28;20635;-75
2022/09/19 08:31:16;;;;;;;6.30;3.50;;;14.60;1.00;;;;;;5048008;28;20396;-75
2022/09/19 08:33:49;;;;;;;8.67;2.90;;;14.40;1.00;;;;;;5048595;28;20429;-77
2022/09/19 08:36:17;;;;;;;7.07;3.00;;;14.40;1.00;;;;;;5053750;28;20168;-80
2022/09/19 08:38:53;;;;;;;7.43;3.20;;;14.40;1.00;;;;;;5044121;28;20897;-80
2022/09/19 08:42:13;;;;;;;7.20;3.47;;;14.20;1.00;;;;;;5040020;28;20982;-80
2022/09/19 08:45:31;;;;;;;3.83;2.70;;;14.20;1.00;;;;;;5012371;28;20407;-80
2022/09/19 08:48:20;;;;;;;9.30;3.30;;;14.40;1.00;;;;;;4953476;28;20877;-80
2022/09/19 08:51:01;;;;;;;10.50;4.33;;;14.50;1.00;;;;;;4950075;28;20805;-78
2022/09/19 08:53:42;;;;;;;11.93;3.37;;;14.40;1.00;;;;;;4959741;28;20454;-75
2022/09/19 08:56:18;;;;;;;11.17;3.73;;;14.70;1.00;;;;;;4960864;28;20437;-75
2022/09/19 08:58:52;;;;;;;5.93;3.33;;;14.80;1.00;;;;;;4948641;28;20512;-75
2022/09/19 09:01:19;;;;;;;8.97;5.00;;;14.60;1.00;;;;;;4961326;28;20452;-75
2022/09/19 09:04:07;;;;;;;10.07;3.23;;;14.50;1.00;;;;;;4964296;28;20928;-76
2022/09/19 09:06:54;;;;;;;19.00;3.57;;;14.70;1.00;;;;;;4948546;28;20824;-80
2022/09/19 09:09:54;;;;;;;6.60;3.10;;;14.80;1.00;;;;;;4958599;28;20414;-80
2022/09/19 09:12:49;;;;;;;13.00;4.53;;;14.80;1.00;;;;;;4953067;28;20442;-80
2022/09/19 09:15:40;;;;;;;9.40;3.77;;;15.00;1.00;;;;;;4952336;28;20521;-80
2022/09/19 09:18:30;;;;;;;6.30;3.33;;;15.00;1.00;;;;;;4964210;28;20451;-80
2022/09/19 09:21:16;;;;;;;11.33;3.87;;;14.90;1.00;;;;;;4992173;28;20424;-77
2022/09/19 09:23:54;;;;;;;5.03;3.80;;;14.90;1.00;;;;;;5013508;28;20916;-80
2022/09/19 09:26:27;;;;;;;10.27;4.17;;;15.00;1.00;;;;;;5052675;28;20399;-80
2022/09/19 09:29:34;;;;;;;9.20;4.40;;;15.10;1.00;;;;;;5053137;28;20384;-81
2022/09/19 09:32:32;;;;;;;6.00;4.20;;;15.10;1.00;;;;;;5053588;28;20417;-80
2022/09/19 09:35:19;;;;;;;9.20;3.97;;;15.30;1.00;;;;;;5052876;28;20424;-80
2022/09/19 09:38:37;;;;;;;9.10;3.90;;;15.50;1.00;;;;;;5042296;28;20389;-80
2022/09/19 09:44:38;;;;;;;3.30;2.90;;;15.80;1.00;;;;;;5003482;28;20499;-80
2022/09/19 09:47:30;;;;;;;6.73;2.87;;;15.80;1.00;;;;;;5013031;28;20536;-80
2022/09/19 09:50:17;;;;;;;8.23;3.27;;;15.70;1.00;;;;;;5015002;28;20388;-80
2022/09/19 09:53:00;;;;;;;9.97;3.20;;;15.70;1.00;;;;;;5014794;28;20507;-75
2022/09/19 09:58:24;;;;;;;5.97;2.97;;;15.80;1.00;;;;;;5014647;28;20788;-79
2022/09/19 10:04:30;;;;;;;9.37;3.67;;;15.80;1.00;;;;;;5014605;28;20452;-82
2022/09/19 10:07:37;;;;;;;3.20;2.40;;;15.90;1.00;;;;;;5012481;28;20422;-80
2022/09/19 10:10:15;;;;;;;8.00;2.50;;;16.10;1.00;;;;;;4959779;28;20493;-79
2022/09/19 10:13:10;;;;;;;5.43;2.83;;;16.30;1.00;;;;;;4956452;29;20415;-77
2022/09/19 10:16:02;;;;;;;5.50;2.00;;;16.30;1.00;;;;;;4934201;29;20965;-77
2022/09/19 10:18:43;;;;;;;8.20;2.27;;;16.10;1.00;;;;;;4952351;29;20932;-78
2022/09/19 10:21:28;;;;;;;4.43;2.57;;;15.90;1.00;;;;;;4956318;29;20835;-77
2022/09/19 10:23:56;;;;;;;4.23;2.53;;;16.00;1.00;;;;;;4939575;29;20455;-76
2022/09/19 10:26:47;;;;;;;4.73;2.27;;;16.00;1.00;;;;;;4955909;29;20393;-75
2022/09/19 10:29:22;;;;;;;3.63;2.47;;;16.00;1.00;;;;;;4946255;28;20458;-78
2022/09/19 10:31:49;;;;;;;5.73;2.37;;;16.00;1.00;;;;;;4955962;29;20420;-77
2022/09/19 10:34:34;;;;;;;9.47;2.70;;;16.10;1.00;;;;;;4956032;29;20462;-77
2022/09/19 10:37:12;;;;;;;6.43;2.80;;;16.10;1.00;;;;;;4955112;28;20466;-76
2022/09/19 10:39:44;;;;;;;4.97;2.47;;;16.20;1.00;;;;;;4955527;29;20436;-77
2022/09/19 10:42:36;;;;;;;5.50;2.30;;;16.40;1.00;;;;;;4955690;29;20857;-77
2022/09/19 10:45:36;;;;;;;7.30;2.40;;;16.50;1.00;;;;;;4927565;29;20442;-77
2022/09/19 10:48:20;;;;;;;7.13;2.00;;;16.80;1.00;;;;;;4936073;29;20413;-77
2022/09/19 10:50:53;;;;;;;7.37;2.47;;;17.00;1.00;;;;;;4924943;29;20398;-77
2022/09/19 10:53:32;;;;;;;9.87;2.37;;;17.00;1.00;;;;;;4952253;29;20425;-80
2022/09/19 10:56:05;;;;;;;8.20;2.10;;;17.00;1.00;;;;;;4954606;28;20454;-81
2022/09/19 11:05:26;;;;;;;5.17;2.83;;;17.20;1.00;;;;;;4949568;29;20432;-86
2022/09/19 11:08:24;;;;;;;15.63;2.90;;;17.40;1.00;;;;;;4941727;29;20468;-86
2022/09/19 11:11:22;;;;;;;9.47;2.47;;;17.60;1.00;;;;;;4955827;29;20451;-86
2022/09/19 11:14:31;;;;;;;6.80;2.60;;;17.90;1.00;;;;;;4939539;29;20523;-86
2022/09/19 11:17:40;;;;;;;6.40;2.73;;;18.00;1.00;;;;;;4955865;29;20416;-84
2022/09/19 11:20:27;;;;;;;4.03;1.60;;;18.20;1.00;;;;;;4947645;29;20499;-87
2022/09/19 11:23:28;;;;;;;5.90;1.90;;;17.80;1.00;;;;;;4939511;29;20436;-80
2022/09/19 11:26:04;;;;;;;5.77;1.90;;;17.50;1.00;;;;;;5052271;28;20434;-80
2022/09/19 11:29:12;;;;;;;5.13;1.60;;;17.50;1.00;;;;;;5053593;28;20999;-79
2022/09/19 11:32:14;;;;;;;7.20;2.00;;;17.60;1.00;;;;;;4993270;28;20413;-83
2022/09/19 11:34:50;;;;;;;5.50;1.50;;;17.70;1.00;;;;;;4974111;28;20471;-80
2022/09/19 11:37:27;;;;;;;6.80;1.70;;;17.70;1.00;;;;;;4961932;28;20479;-80
2022/09/19 11:40:08;;;;;;;8.23;1.83;;;17.80;1.00;;;;;;4993174;28;20940;-83
2022/09/19 11:46:17;;;;;;;5.20;1.70;;;17.60;1.00;;;;;;4973933;28;20345;-82
2022/09/19 11:49:13;;;;;;;6.20;1.80;;;17.50;1.00;;;;;;4987075;28;20420;-81
2022/09/19 11:51:51;;;;;;;5.30;1.93;;;17.60;1.00;;;;;;4993145;28;20508;-82
2022/09/19 11:54:40;;;;;;;9.27;1.97;;;17.70;1.00;;;;;;4992907;28;20478;-80
2022/09/19 11:57:26;;;;;;;11.23;1.70;;;17.80;1.00;;;;;;4970810;28;20518;-81
2022/09/19 12:00:04;;;;;;;7.03;1.87;;;17.90;1.00;;;;;;4992644;28;20430;-82
2022/09/19 12:03:16;;;;;;;12.33;1.70;;;18.00;1.00;;;;;;4992936;28;20457;-81
2022/09/19 12:06:07;;;;;;;14.43;2.47;;;18.10;1.00;;;;;;4992668;28;20474;-81
2022/09/19 12:09:17;;;;;;;7.73;1.60;;;18.70;1.00;;;;;;5035485;28;20864;-81
2022/09/19 12:12:06;;;;;;;7.70;1.47;;;19.00;1.00;;;;;;5046499;28;20832;-82
2022/09/19 12:14:42;;;;;;;3.13;1.40;;;18.90;1.00;;;;;;5032896;28;20511;-81
2022/09/19 12:20:50;;;;;;;8.70;1.77;;;19.20;1.00;;;;;;5036249;28;20388;-81
2022/09/19 12:26:32;;;;;;;4.80;1.50;;;19.00;1.00;;;;;;5053911;28;20425;-80
2022/09/19 12:29:28;;;;;;;2.00;1.40;;;18.80;1.00;;;;;;5033809;28;20415;-80
2022/09/19 12:32:41;;;;;;;10.63;1.20;;;18.80;1.00;;;;;;5052625;28;20531;-80
2022/09/19 12:35:45;;;;;;;5.33;1.57;;;18.90;1.00;;;;;;5048486;28;20960;-80
2022/09/19 12:38:35;;;;;;;1.90;1.17;;;19.20;1.00;;;;;;5034464;28;20441;-84
2022/09/19 12:41:23;;;;;;;3.37;1.07;;;19.00;1.00;;;;;;5033141;28;20856;-81
2022/09/19 12:43:56;;;;;;;3.27;0.90;;;19.20;1.00;;;;;;5047932;28;20457;-82
2022/09/19 12:46:55;;;;;;;8.87;1.63;;;19.70;1.00;;;;;;5048108;28;20413;-82
2022/09/19 12:49:36;;;;;;;7.87;1.50;;;19.80;1.00;;;;;;5033573;28;20399;-82
2022/09/19 12:52:19;;;;;;;4.33;1.53;;;20.10;1.00;;;;;;5033491;28;20430;-82
2022/09/19 12:55:17;;;;;;;2.70;1.10;;;20.00;1.00;;;;;;5034230;28;20456;-86
2022/09/19 12:58:12;;;;;;;5.10;0.87;;;19.70;1.00;;;;;;5032857;28;20458;-86
2022/09/19 13:01:18;;;;;;;6.70;1.40;;;19.70;1.00;;;;;;5064999;28;20405;-87
2022/09/19 13:04:28;;;;;;;3.90;1.30;;;19.70;1.00;;;;;;5052727;28;20394;-85
2022/09/19 13:07:14;;;;;;;6.63;1.27;;;19.70;1.00;;;;;;5043199;28;20465;-89
2022/09/19 13:10:37;;;;;;;6.50;1.10;;;19.70;1.00;;;;;;5033780;28;20399;-81
2022/09/19 13:13:33;;;;;;;10.50;1.40;;;19.80;1.00;;;;;;5002628;28;20420;-81
2022/09/19 13:16:28;;;;;;;4.00;1.20;;;20.00;1.00;;;;;;5011481;28;20469;-81
2022/09/19 13:24:47;;;;;;;10.20;1.87;;;19.50;1.00;;;;;;5015772;28;20427;-81
2022/09/19 13:27:25;;;;;;;9.90;1.53;;;19.10;1.00;;;;;;5015522;28;20530;-82
2022/09/19 13:29:55;;;;;;;7.00;1.73;;;19.20;1.00;;;;;;5015386;28;20399;-80
2022/09/19 13:32:59;;;;;;;5.80;1.47;;;19.10;1.00;;;;;;5001936;28;20446;-80
2022/09/19 13:35:25;;;;;;;2.30;1.17;;;19.00;1.00;;;;;;5014662;28;20473;-80
2022/09/19 13:38:16;;;;;;;4.53;1.20;;;18.80;1.00;;;;;;5005475;28;20486;-81
2022/09/19 13:44:18;;;;;;;2.30;1.17;;;18.30;1.00;;;;;;5030113;28;20421;-89
2022/09/19 13:50:20;;;;;;;4.17;1.20;;;18.40;1.00;;;;;;5041965;28;20464;-89
2022/09/19 13:53:01;;;;;;;1.53;0.90;;;18.40;1.00;;;;;;5049572;28;20858;-87
2022/09/19 13:56:04;;;;;;;5.27;1.17;;;18.50;1.00;;;;;;5037344;28;20539;-82
2022/09/19 13:58:36;;;;;;;2.97;0.97;;;18.20;1.00;;;;;;5050108;28;20413;-84
2022/09/19 14:01:49;;;;;;;4.57;1.30;;;18.30;1.00;;;;;;5041741;28;20449;-83
2022/09/19 14:07:23;;;;;;;1.60;0.90;;;18.30;1.00;;;;;;5015158;28;20528;-82
2022/09/19 14:10:00;;;;;;;1.63;0.90;;;18.40;1.00;;;;;;5015264;28;20417;-87
2022/09/19 14:13:05;;;;;;;3.67;1.07;;;18.40;1.00;;;;;;5015377;28;20422;-86
2022/09/19 14:16:05;;;;;;;3.37;1.13;;;18.20;1.00;;;;;;5014706;28;20555;-86
2022/09/19 14:18:49;;;;;;;3.90;1.03;;;18.10;1.00;;;;;;5012572;28;20910;-87
2022/09/19 14:21:44;;;;;;;3.33;1.40;;;18.00;1.00;;;;;;4998837;28;20488;-86
2022/09/19 14:28:02;;;;;;;1.60;0.90;;;18.40;1.00;;;;;;5005443;28;20400;-85
2022/09/19 14:31:06;;;;;;;2.60;1.00;;;18.70;1.00;;;;;;5013872;28;20418;-86
2022/09/19 14:37:43;;;;;;;6.83;1.03;;;18.30;1.00;;;;;;5005166;28;20410;-86
2022/09/19 14:40:41;;;;;;;1.77;0.97;;;18.00;1.00;;;;;;5019203;28;20974;-82
2022/09/19 14:43:35;;;;;;;3.63;1.10;;;17.90;1.00;;;;;;5055842;28;20419;-82
2022/09/19 14:46:28;;;;;;;3.63;0.83;;;17.40;1.00;;;;;;5053718;28;20407;-85
2022/09/19 14:49:18;;;;;;;4.67;1.20;;;16.90;1.00;;;;;;5036027;28;20395;-84
2022/09/19 14:51:53;;;;;;;5.97;1.17;;;15.90;1.00;;;;;;5043589;28;20875;-83
2022/09/19 14:54:28;;;;;;;4.17;1.30;;;15.30;1.00;;;;;;5049253;28;20463;-82
2022/09/19 14:57:16;;;;;;;1.60;1.00;;;14.90;1.00;;;;;;5035830;28;20380;-83
2022/09/19 14:59:53;;;;;;;5.00;1.10;;;14.50;1.00;;;;;;5042215;28;20423;-83
2022/09/19 15:02:53;;;;;;;9.27;1.27;;;14.50;1.00;;;;;;5042031;28;20421;-82
2022/09/19 15:05:53;;;;;;;9.90;1.60;;;14.40;1.00;;;;;;5047686;28;20404;-82
2022/09/19 15:08:46;;;;;;;6.67;1.30;;;14.70;1.00;;;;;;5065165;28;20837;-82
2022/09/19 15:17:55;;;;;;;4.97;1.00;;;18.40;1.00;;;;;;5037285;28;20392;-88
2022/09/19 15:20:41;;;;;;;3.60;1.00;;;20.30;1.00;;;;;;5037576;28;20425;-90
2022/09/19 15:23:09;;;;;;;3.00;0.97;;;21.80;1.00;;;;;;5051412;28;20199;-90
2022/09/19 15:26:00;;;;;;;2.63;0.90;;;22.80;1.00;;;;;;5054988;28;20424;-88
2022/09/19 15:31:50;;;;;;;2.93;1.20;;;23.20;1.00;;;;;;5053071;28;20422;-89
2022/09/19 15:34:36;;;;;;;3.30;1.10;;;22.50;1.00;;;;;;5054343;28;20456;-89
2022/09/19 15:40:25;;;;;;;5.27;0.90;;;21.50;1.00;;;;;;5048559;28;20403;-79
2022/09/19 15:43:47;;;;;;;3.17;0.90;;;21.80;1.00;;;;;;5054451;28;20385;-81
2022/09/19 15:46:53;;;;;;;2.03;1.00;;;22.60;1.00;;;;;;5041075;28;20470;-80
2022/09/19 15:49:59;;;;;;;7.40;0.70;;;23.50;1.00;;;;;;5035768;28;20432;-80